sensor_id;sensor_type;location;lat;lon;timestamp;temperature;humidity
35457;DHT22;21575;51.538;-0.084;2022-12-18T00:01:19;1.10;99.90
35457;DHT22;21575;51.538;-0.084;2022-12-18T00:03:45;1.00;99.90
35457;DHT22;21575;51.538;-0.084;2022-12-18T00:06:11;1.00;99.90
35457;DHT22;21575;51.538;-0.084;2022-12-18T00:08:37;1.00;99.90
35457;DHT22;21575;51.538;-0.084;2022-12-18T00:11:08;1.00;99.90
35457;DHT22;21575;51.538;-0.084;2022-12-18T00:13:34;1.00;99.90
35457;DHT22;21575;51.538;-0.084;2022-12-18T00:16:04;1.10;99.90
35457;DHT22;21575;51.538;-0.084;2022-12-18T00:18:31;1.10;99.90
35457;DHT22;21575;51.538;-0.084;2022-12-18T00:21:02;1.10;99.90
35457;DHT22;21575;51.538;-0.084;2022-12-18T00:23:29;1.10;99.90
35457;DHT22;21575;51.538;-0.084;2022-12-18T00:25:58;1.10;99.90
35457;DHT22;21575;51.538;-0.084;2022-12-18T00:28:24;1.10;99.90
35457;DHT22;21575;51.538;-0.084;2022-12-18T00:30:49;1.10;99.90
35457;DHT22;21575;51.538;-0.084;2022-12-18T00:33:17;1.10;99.90
35457;DHT22;21575;51.538;-0.084;2022-12-18T00:35:43;1.10;99.90
35457;DHT22;21575;51.538;-0.084;2022-12-18T00:38:08;1.10;99.90
35457;DHT22;21575;51.538;-0.084;2022-12-18T00:40:34;1.00;99.90
35457;DHT22;21575;51.538;-0.084;2022-12-18T00:42:59;1.00;99.90
35457;DHT22;21575;51.538;-0.084;2022-12-18T00:45:27;0.90;99.90
35457;DHT22;21575;51.538;-0.084;2022-12-18T00:47:54;0.90;99.90
35457;DHT22;21575;51.538;-0.084;2022-12-18T00:50:20;0.90;99.90
35457;DHT22;21575;51.538;-0.084;2022-12-18T00:52:46;0.90;99.90
35457;DHT22;21575;51.538;-0.084;2022-12-18T00:55:13;0.80;99.90
35457;DHT22;21575;51.538;-0.084;2022-12-18T00:57:38;0.80;99.90
35457;DHT22;21575;51.538;-0.084;2022-12-18T01:00:06;0.70;99.90
35457;DHT22;21575;51.538;-0.084;2022-12-18T01:02:32;0.70;99.90
35457;DHT22;21575;51.538;-0.084;2022-12-18T01:04:57;0.70;99.90
35457;DHT22;21575;51.538;-0.084;2022-12-18T01:07:23;0.70;99.90
35457;DHT22;21575;51.538;-0.084;2022-12-18T01:09:49;0.70;99.90
35457;DHT22;21575;51.538;-0.084;2022-12-18T01:12:14;0.70;99.90
35457;DHT22;21575;51.538;-0.084;2022-12-18T01:14:40;0.60;99.90
35457;DHT22;21575;51.538;-0.084;2022-12-18T01:17:05;0.60;99.90
35457;DHT22;21575;51.538;-0.084;2022-12-18T01:19:31;0.50;99.90
35457;DHT22;21575;51.538;-0.084;2022-12-18T01:21:57;0.50;99.90
35457;DHT22;21575;51.538;-0.084;2022-12-18T01:24:23;0.50;99.90
35457;DHT22;21575;51.538;-0.084;2022-12-18T01:26:48;0.50;99.90
35457;DHT22;21575;51.538;-0.084;2022-12-18T01:29:14;0.50;99.90
35457;DHT22;21575;51.538;-0.084;2022-12-18T01:31:40;0.50;99.90
35457;DHT22;21575;51.538;-0.084;2022-12-18T01:34:06;0.50;99.90
35457;DHT22;21575;51.538;-0.084;2022-12-18T01:36:33;0.40;99.90
35457;DHT22;21575;51.538;-0.084;2022-12-18T01:39:01;0.40;99.90
35457;DHT22;21575;51.538;-0.084;2022-12-18T01:41:29;0.40;99.90
35457;DHT22;21575;51.538;-0.084;2022-12-18T01:47:30;0.50;99.90
35457;DHT22;21575;51.538;-0.084;2022-12-18T01:49:59;0.40;99.90
35457;DHT22;21575;51.538;-0.084;2022-12-18T01:52:28;0.40;99.90
35457;DHT22;21575;51.538;-0.084;2022-12-18T01:54:54;0.30;99.90
35457;DHT22;21575;51.538;-0.084;2022-12-18T01:57:21;0.30;99.90
35457;DHT22;21575;51.538;-0.084;2022-12-18T01:59:50;0.30;99.90
35457;DHT22;21575;51.538;-0.084;2022-12-18T02:02:18;0.30;99.90
35457;DHT22;21575;51.538;-0.084;2022-12-18T02:04:44;0.30;99.90
35457;DHT22;21575;51.538;-0.084;2022-12-18T02:09:52;0.30;99.90
35457;DHT22;21575;51.538;-0.084;2022-12-18T02:12:23;0.20;99.90
35457;DHT22;21575;51.538;-0.084;2022-12-18T02:14:59;0.20;99.90
35457;DHT22;21575;51.538;-0.084;2022-12-18T02:20:17;0.20;99.90
35457;DHT22;21575;51.538;-0.084;2022-12-18T02:28:43;0.20;99.90
35457;DHT22;21575;51.538;-0.084;2022-12-18T02:31:13;0.20;99.90
35457;DHT22;21575;51.538;-0.084;2022-12-18T02:33:42;0.20;99.90
35457;DHT22;21575;51.538;-0.084;2022-12-18T02:36:09;0.10;99.90
35457;DHT22;21575;51.538;-0.084;2022-12-18T02:38:36;0.10;99.90
35457;DHT22;21575;51.538;-0.084;2022-12-18T02:41:03;0.10;99.90
35457;DHT22;21575;51.538;-0.084;2022-12-18T02:43:29;0.10;99.90
35457;DHT22;21575;51.538;-0.084;2022-12-18T02:45:59;0.10;99.90
35457;DHT22;21575;51.538;-0.084;2022-12-18T02:48:35;0.10;99.90
35457;DHT22;21575;51.538;-0.084;2022-12-18T02:51:08;0.10;99.90
35457;DHT22;21575;51.538;-0.084;2022-12-18T02:53:43;0.10;99.90
35457;DHT22;21575;51.538;-0.084;2022-12-18T02:56:35;0.10;99.90
35457;DHT22;21575;51.538;-0.084;2022-12-18T02:59:13;0.10;99.90
35457;DHT22;21575;51.538;-0.084;2022-12-18T03:06:55;0.10;99.90
35457;DHT22;21575;51.538;-0.084;2022-12-18T03:09:43;0.10;99.90
35457;DHT22;21575;51.538;-0.084;2022-12-18T03:15:02;0.10;99.90
35457;DHT22;21575;51.538;-0.084;2022-12-18T03:17:32;0.20;99.90
35457;DHT22;21575;51.538;-0.084;2022-12-18T03:20:03;0.20;99.90
35457;DHT22;21575;51.538;-0.084;2022-12-18T03:22:31;0.20;99.90
35457;DHT22;21575;51.538;-0.084;2022-12-18T03:25:00;0.20;99.90
35457;DHT22;21575;51.538;-0.084;2022-12-18T03:27:27;0.10;99.90
35457;DHT22;21575;51.538;-0.084;2022-12-18T03:30:03;0.20;99.90
35457;DHT22;21575;51.538;-0.084;2022-12-18T03:32:38;0.20;99.90
35457;DHT22;21575;51.538;-0.084;2022-12-18T03:35:07;0.20;99.90
35457;DHT22;21575;51.538;-0.084;2022-12-18T03:37:33;0.20;99.90
35457;DHT22;21575;51.538;-0.084;2022-12-18T03:39:59;0.20;99.90
35457;DHT22;21575;51.538;-0.084;2022-12-18T03:45:20;0.20;99.90
35457;DHT22;21575;51.538;-0.084;2022-12-18T03:48:18;0.20;99.90
35457;DHT22;21575;51.538;-0.084;2022-12-18T03:53:32;0.10;99.90
35457;DHT22;21575;51.538;-0.084;2022-12-18T03:56:02;0.20;99.90
35457;DHT22;21575;51.538;-0.084;2022-12-18T03:58:32;0.20;99.90
35457;DHT22;21575;51.538;-0.084;2022-12-18T04:01:02;0.10;99.90
35457;DHT22;21575;51.538;-0.084;2022-12-18T04:03:29;0.10;99.90
35457;DHT22;21575;51.538;-0.084;2022-12-18T04:05:59;0.20;99.90
35457;DHT22;21575;51.538;-0.084;2022-12-18T04:08:26;0.20;99.90
35457;DHT22;21575;51.538;-0.084;2022-12-18T04:10:52;0.20;99.90
35457;DHT22;21575;51.538;-0.084;2022-12-18T04:13:43;0.20;99.90
35457;DHT22;21575;51.538;-0.084;2022-12-18T04:16:08;0.20;99.90
35457;DHT22;21575;51.538;-0.084;2022-12-18T04:18:35;0.10;99.90
35457;DHT22;21575;51.538;-0.084;2022-12-18T04:21:01;0.10;99.90
35457;DHT22;21575;51.538;-0.084;2022-12-18T04:23:26;0.10;99.90
35457;DHT22;21575;51.538;-0.084;2022-12-18T04:25:52;0.10;99.90
35457;DHT22;21575;51.538;-0.084;2022-12-18T04:28:18;0.20;99.90
35457;DHT22;21575;51.538;-0.084;2022-12-18T04:30:43;0.20;99.90
35457;DHT22;21575;51.538;-0.084;2022-12-18T04:33:11;0.20;99.90
35457;DHT22;21575;51.538;-0.084;2022-12-18T04:35:37;0.20;99.90
35457;DHT22;21575;51.538;-0.084;2022-12-18T04:38:02;0.20;99.90
35457;DHT22;21575;51.538;-0.084;2022-12-18T04:40:28;0.20;99.90
35457;DHT22;21575;51.538;-0.084;2022-12-18T04:42:54;0.20;99.90
35457;DHT22;21575;51.538;-0.084;2022-12-18T04:45:19;0.20;99.90
35457;DHT22;21575;51.538;-0.084;2022-12-18T04:47:45;0.20;99.90
35457;DHT22;21575;51.538;-0.084;2022-12-18T04:50:10;0.20;99.90
35457;DHT22;21575;51.538;-0.084;2022-12-18T04:52:36;0.20;99.90
35457;DHT22;21575;51.538;-0.084;2022-12-18T04:55:02;0.20;99.90
35457;DHT22;21575;51.538;-0.084;2022-12-18T04:57:28;0.30;99.90
35457;DHT22;21575;51.538;-0.084;2022-12-18T04:59:54;0.30;99.90
35457;DHT22;21575;51.538;-0.084;2022-12-18T05:02:19;0.30;99.90
35457;DHT22;21575;51.538;-0.084;2022-12-18T05:04:45;0.40;99.90
35457;DHT22;21575;51.538;-0.084;2022-12-18T05:07:10;0.40;99.90
35457;DHT22;21575;51.538;-0.084;2022-12-18T05:09:36;0.40;99.90
35457;DHT22;21575;51.538;-0.084;2022-12-18T05:12:02;0.40;99.90
35457;DHT22;21575;51.538;-0.084;2022-12-18T05:14:27;0.40;99.90
35457;DHT22;21575;51.538;-0.084;2022-12-18T05:16:54;0.40;99.90
35457;DHT22;21575;51.538;-0.084;2022-12-18T05:19:20;0.40;99.90
35457;DHT22;21575;51.538;-0.084;2022-12-18T05:21:46;0.40;99.90
35457;DHT22;21575;51.538;-0.084;2022-12-18T05:24:11;0.40;99.90
35457;DHT22;21575;51.538;-0.084;2022-12-18T05:26:37;0.40;99.90
35457;DHT22;21575;51.538;-0.084;2022-12-18T05:29:03;0.40;99.90
35457;DHT22;21575;51.538;-0.084;2022-12-18T05:31:28;0.50;99.90
35457;DHT22;21575;51.538;-0.084;2022-12-18T05:33:54;0.50;99.90
35457;DHT22;21575;51.538;-0.084;2022-12-18T05:36:20;0.50;99.90
35457;DHT22;21575;51.538;-0.084;2022-12-18T05:38:45;0.50;99.90
35457;DHT22;21575;51.538;-0.084;2022-12-18T05:41:11;0.50;99.90
35457;DHT22;21575;51.538;-0.084;2022-12-18T05:43:38;0.60;99.90
35457;DHT22;21575;51.538;-0.084;2022-12-18T05:46:11;0.60;99.90
35457;DHT22;21575;51.538;-0.084;2022-12-18T05:48:37;0.70;99.90
35457;DHT22;21575;51.538;-0.084;2022-12-18T05:51:15;0.70;99.90
35457;DHT22;21575;51.538;-0.084;2022-12-18T05:53:41;0.70;99.90
35457;DHT22;21575;51.538;-0.084;2022-12-18T05:56:10;0.70;99.90
35457;DHT22;21575;51.538;-0.084;2022-12-18T05:58:36;0.80;99.90
35457;DHT22;21575;51.538;-0.084;2022-12-18T06:01:11;0.80;99.90
35457;DHT22;21575;51.538;-0.084;2022-12-18T06:03:38;0.80;99.90
35457;DHT22;21575;51.538;-0.084;2022-12-18T06:06:03;0.90;99.90
35457;DHT22;21575;51.538;-0.084;2022-12-18T06:08:29;0.90;99.90
35457;DHT22;21575;51.538;-0.084;2022-12-18T06:10:55;1.00;99.90
35457;DHT22;21575;51.538;-0.084;2022-12-18T06:13:21;1.00;99.90
35457;DHT22;21575;51.538;-0.084;2022-12-18T06:15:47;1.10;99.90
35457;DHT22;21575;51.538;-0.084;2022-12-18T06:18:12;1.10;99.90
35457;DHT22;21575;51.538;-0.084;2022-12-18T06:20:38;1.20;99.90
35457;DHT22;21575;51.538;-0.084;2022-12-18T06:23:05;1.20;99.90
35457;DHT22;21575;51.538;-0.084;2022-12-18T06:25:31;1.20;99.90
35457;DHT22;21575;51.538;-0.084;2022-12-18T06:27:57;1.30;99.90
35457;DHT22;21575;51.538;-0.084;2022-12-18T06:30:23;1.40;99.90
35457;DHT22;21575;51.538;-0.084;2022-12-18T06:32:49;1.40;99.90
35457;DHT22;21575;51.538;-0.084;2022-12-18T06:35:15;1.50;99.90
35457;DHT22;21575;51.538;-0.084;2022-12-18T06:37:40;1.50;99.90
35457;DHT22;21575;51.538;-0.084;2022-12-18T06:40:07;1.60;99.90
35457;DHT22;21575;51.538;-0.084;2022-12-18T06:42:32;1.60;99.90
35457;DHT22;21575;51.538;-0.084;2022-12-18T06:44:58;1.70;99.90
35457;DHT22;21575;51.538;-0.084;2022-12-18T06:47:24;1.70;99.90
35457;DHT22;21575;51.538;-0.084;2022-12-18T06:49:49;1.70;99.90
35457;DHT22;21575;51.538;-0.084;2022-12-18T06:52:15;1.70;99.90
35457;DHT22;21575;51.538;-0.084;2022-12-18T06:54:41;1.80;99.90
35457;DHT22;21575;51.538;-0.084;2022-12-18T06:57:06;1.80;99.90
35457;DHT22;21575;51.538;-0.084;2022-12-18T06:59:32;1.80;99.90
35457;DHT22;21575;51.538;-0.084;2022-12-18T07:01:58;1.80;99.90
35457;DHT22;21575;51.538;-0.084;2022-12-18T07:04:30;1.90;99.90
35457;DHT22;21575;51.538;-0.084;2022-12-18T07:06:56;1.90;99.90
35457;DHT22;21575;51.538;-0.084;2022-12-18T07:09:21;1.90;99.90
35457;DHT22;21575;51.538;-0.084;2022-12-18T07:11:47;2.00;99.90
35457;DHT22;21575;51.538;-0.084;2022-12-18T07:14:12;2.00;99.90
35457;DHT22;21575;51.538;-0.084;2022-12-18T07:16:38;2.00;99.90
35457;DHT22;21575;51.538;-0.084;2022-12-18T07:19:04;2.00;99.90
35457;DHT22;21575;51.538;-0.084;2022-12-18T07:21:29;2.10;99.90
35457;DHT22;21575;51.538;-0.084;2022-12-18T07:23:55;2.10;99.90
35457;DHT22;21575;51.538;-0.084;2022-12-18T07:26:21;2.10;99.90
35457;DHT22;21575;51.538;-0.084;2022-12-18T07:28:47;2.00;99.90
35457;DHT22;21575;51.538;-0.084;2022-12-18T07:31:19;2.10;99.90
35457;DHT22;21575;51.538;-0.084;2022-12-18T07:33:46;2.00;99.90
35457;DHT22;21575;51.538;-0.084;2022-12-18T07:36:13;2.10;99.90
35457;DHT22;21575;51.538;-0.084;2022-12-18T07:38:39;2.10;99.90
35457;DHT22;21575;51.538;-0.084;2022-12-18T07:43:32;2.10;99.90
35457;DHT22;21575;51.538;-0.084;2022-12-18T07:45:58;2.10;99.90
35457;DHT22;21575;51.538;-0.084;2022-12-18T07:48:23;2.10;99.90
35457;DHT22;21575;51.538;-0.084;2022-12-18T07:50:49;2.20;99.90
35457;DHT22;21575;51.538;-0.084;2022-12-18T07:53:15;2.20;99.90
35457;DHT22;21575;51.538;-0.084;2022-12-18T07:55:41;2.20;99.90
35457;DHT22;21575;51.538;-0.084;2022-12-18T07:58:08;2.20;99.90
35457;DHT22;21575;51.538;-0.084;2022-12-18T08:00:34;2.20;99.90
35457;DHT22;21575;51.538;-0.084;2022-12-18T08:03:00;2.20;99.90
35457;DHT22;21575;51.538;-0.084;2022-12-18T08:05:26;2.20;99.90
35457;DHT22;21575;51.538;-0.084;2022-12-18T08:07:52;2.20;99.90
35457;DHT22;21575;51.538;-0.084;2022-12-18T08:10:18;2.20;99.90
35457;DHT22;21575;51.538;-0.084;2022-12-18T08:12:44;2.20;99.90
35457;DHT22;21575;51.538;-0.084;2022-12-18T08:15:10;2.20;99.90
35457;DHT22;21575;51.538;-0.084;2022-12-18T08:17:36;2.30;99.90
35457;DHT22;21575;51.538;-0.084;2022-12-18T08:20:02;2.30;99.90
35457;DHT22;21575;51.538;-0.084;2022-12-18T08:22:28;2.20;99.90
35457;DHT22;21575;51.538;-0.084;2022-12-18T08:24:53;2.20;99.90
35457;DHT22;21575;51.538;-0.084;2022-12-18T08:27:19;2.30;99.90
35457;DHT22;21575;51.538;-0.084;2022-12-18T08:29:45;2.30;99.90
35457;DHT22;21575;51.538;-0.084;2022-12-18T08:32:10;2.20;99.90
35457;DHT22;21575;51.538;-0.084;2022-12-18T08:34:36;2.30;99.90
35457;DHT22;21575;51.538;-0.084;2022-12-18T08:37:02;2.40;99.90
35457;DHT22;21575;51.538;-0.084;2022-12-18T08:39:27;2.40;99.90
35457;DHT22;21575;51.538;-0.084;2022-12-18T08:41:53;2.40;99.90
35457;DHT22;21575;51.538;-0.084;2022-12-18T08:44:37;2.50;99.90
35457;DHT22;21575;51.538;-0.084;2022-12-18T08:47:03;2.50;99.90
35457;DHT22;21575;51.538;-0.084;2022-12-18T08:49:29;2.50;99.90
35457;DHT22;21575;51.538;-0.084;2022-12-18T08:51:55;2.50;99.90
35457;DHT22;21575;51.538;-0.084;2022-12-18T08:54:23;2.50;99.90
35457;DHT22;21575;51.538;-0.084;2022-12-18T08:56:49;2.50;99.90
35457;DHT22;21575;51.538;-0.084;2022-12-18T08:59:18;2.60;99.90
35457;DHT22;21575;51.538;-0.084;2022-12-18T09:01:45;2.60;99.90
35457;DHT22;21575;51.538;-0.084;2022-12-18T09:04:11;2.60;99.90
35457;DHT22;21575;51.538;-0.084;2022-12-18T09:06:37;2.60;99.90
35457;DHT22;21575;51.538;-0.084;2022-12-18T09:09:04;2.60;99.90
35457;DHT22;21575;51.538;-0.084;2022-12-18T09:11:30;2.70;99.90
35457;DHT22;21575;51.538;-0.084;2022-12-18T09:13:57;2.60;99.90
35457;DHT22;21575;51.538;-0.084;2022-12-18T09:16:25;2.70;99.90
35457;DHT22;21575;51.538;-0.084;2022-12-18T09:18:51;2.70;99.90
35457;DHT22;21575;51.538;-0.084;2022-12-18T09:21:18;2.70;99.90
35457;DHT22;21575;51.538;-0.084;2022-12-18T09:23:50;2.70;99.90
35457;DHT22;21575;51.538;-0.084;2022-12-18T09:26:16;2.70;99.90
35457;DHT22;21575;51.538;-0.084;2022-12-18T09:28:42;2.70;99.90
35457;DHT22;21575;51.538;-0.084;2022-12-18T09:31:08;2.70;99.90
35457;DHT22;21575;51.538;-0.084;2022-12-18T09:33:36;2.70;99.90
35457;DHT22;21575;51.538;-0.084;2022-12-18T09:36:07;2.80;99.90
35457;DHT22;21575;51.538;-0.084;2022-12-18T09:38:34;2.80;99.90
35457;DHT22;21575;51.538;-0.084;2022-12-18T09:43:36;2.80;99.90
35457;DHT22;21575;51.538;-0.084;2022-12-18T09:46:08;2.80;99.90
35457;DHT22;21575;51.538;-0.084;2022-12-18T09:48:40;2.80;99.90
35457;DHT22;21575;51.538;-0.084;2022-12-18T09:51:19;2.90;99.90
35457;DHT22;21575;51.538;-0.084;2022-12-18T09:53:51;2.90;99.90
35457;DHT22;21575;51.538;-0.084;2022-12-18T09:56:20;2.90;99.90
35457;DHT22;21575;51.538;-0.084;2022-12-18T09:58:58;2.90;99.90
35457;DHT22;21575;51.538;-0.084;2022-12-18T10:01:24;2.90;99.90
35457;DHT22;21575;51.538;-0.084;2022-12-18T10:03:50;2.90;99.90
35457;DHT22;21575;51.538;-0.084;2022-12-18T10:06:28;3.00;99.90
35457;DHT22;21575;51.538;-0.084;2022-12-18T10:14:17;3.10;99.90
35457;DHT22;21575;51.538;-0.084;2022-12-18T10:17:12;3.10;99.90
35457;DHT22;21575;51.538;-0.084;2022-12-18T10:20:02;3.10;99.90
35457;DHT22;21575;51.538;-0.084;2022-12-18T10:25:47;3.10;99.90
35457;DHT22;21575;51.538;-0.084;2022-12-18T10:28:16;3.20;99.90
35457;DHT22;21575;51.538;-0.084;2022-12-18T10:30:43;3.10;99.90
35457;DHT22;21575;51.538;-0.084;2022-12-18T10:33:20;3.20;99.90
35457;DHT22;21575;51.538;-0.084;2022-12-18T10:35:49;3.20;99.90
35457;DHT22;21575;51.538;-0.084;2022-12-18T10:44:23;3.40;99.90
35457;DHT22;21575;51.538;-0.084;2022-12-18T10:47:03;3.50;99.90
35457;DHT22;21575;51.538;-0.084;2022-12-18T10:49:32;3.50;99.90
35457;DHT22;21575;51.538;-0.084;2022-12-18T10:52:23;3.50;99.90
35457;DHT22;21575;51.538;-0.084;2022-12-18T10:55:02;3.50;99.90
35457;DHT22;21575;51.538;-0.084;2022-12-18T10:57:33;3.50;99.90
35457;DHT22;21575;51.538;-0.084;2022-12-18T11:00:18;3.50;99.90
35457;DHT22;21575;51.538;-0.084;2022-12-18T11:02:45;3.60;99.90
35457;DHT22;21575;51.538;-0.084;2022-12-18T11:05:34;3.60;99.90
35457;DHT22;21575;51.538;-0.084;2022-12-18T11:08:02;3.70;99.90
35457;DHT22;21575;51.538;-0.084;2022-12-18T11:10:32;3.70;99.90
35457;DHT22;21575;51.538;-0.084;2022-12-18T11:13:37;3.70;99.90
35457;DHT22;21575;51.538;-0.084;2022-12-18T11:16:03;3.70;99.90
35457;DHT22;21575;51.538;-0.084;2022-12-18T11:18:34;3.70;99.90
35457;DHT22;21575;51.538;-0.084;2022-12-18T11:21:06;3.70;99.90
35457;DHT22;21575;51.538;-0.084;2022-12-18T11:23:33;3.70;99.90
35457;DHT22;21575;51.538;-0.084;2022-12-18T11:26:02;3.80;99.90
35457;DHT22;21575;51.538;-0.084;2022-12-18T11:28:40;3.80;99.90
35457;DHT22;21575;51.538;-0.084;2022-12-18T11:31:27;3.90;99.90
35457;DHT22;21575;51.538;-0.084;2022-12-18T11:34:10;3.90;99.90
35457;DHT22;21575;51.538;-0.084;2022-12-18T11:36:42;3.90;99.90
35457;DHT22;21575;51.538;-0.084;2022-12-18T11:39:34;4.00;99.90
35457;DHT22;21575;51.538;-0.084;2022-12-18T11:42:15;4.00;99.90
35457;DHT22;21575;51.538;-0.084;2022-12-18T11:50:48;4.10;99.90
35457;DHT22;21575;51.538;-0.084;2022-12-18T11:53:12;4.10;99.90
35457;DHT22;21575;51.538;-0.084;2022-12-18T11:55:53;4.10;99.90
35457;DHT22;21575;51.538;-0.084;2022-12-18T11:58:47;4.20;99.90
35457;DHT22;21575;51.538;-0.084;2022-12-18T12:04:30;4.20;99.90
35457;DHT22;21575;51.538;-0.084;2022-12-18T12:12:38;4.20;99.90
35457;DHT22;21575;51.538;-0.084;2022-12-18T12:15:36;4.20;99.90
35457;DHT22;21575;51.538;-0.084;2022-12-18T12:22:11;4.20;99.90
35457;DHT22;21575;51.538;-0.084;2022-12-18T12:27:46;4.20;99.90
35457;DHT22;21575;51.538;-0.084;2022-12-18T12:30:23;4.30;99.90
35457;DHT22;21575;51.538;-0.084;2022-12-18T12:36:08;4.30;99.90
35457;DHT22;21575;51.538;-0.084;2022-12-18T12:38:42;4.30;99.90
35457;DHT22;21575;51.538;-0.084;2022-12-18T12:41:15;4.20;99.90
35457;DHT22;21575;51.538;-0.084;2022-12-18T12:44:04;4.20;99.90
35457;DHT22;21575;51.538;-0.084;2022-12-18T12:46:36;4.20;99.90
35457;DHT22;21575;51.538;-0.084;2022-12-18T12:49:12;4.20;99.90
35457;DHT22;21575;51.538;-0.084;2022-12-18T12:51:43;4.20;99.90
35457;DHT22;21575;51.538;-0.084;2022-12-18T12:54:17;4.20;99.90
35457;DHT22;21575;51.538;-0.084;2022-12-18T12:57:09;4.20;99.90
35457;DHT22;21575;51.538;-0.084;2022-12-18T13:13:10;4.10;99.90
35457;DHT22;21575;51.538;-0.084;2022-12-18T13:15:45;4.20;99.90
35457;DHT22;21575;51.538;-0.084;2022-12-18T13:31:07;4.20;99.90
35457;DHT22;21575;51.538;-0.084;2022-12-18T13:33:44;4.20;99.90
35457;DHT22;21575;51.538;-0.084;2022-12-18T13:36:26;4.20;99.90
35457;DHT22;21575;51.538;-0.084;2022-12-18T13:41:43;4.20;99.90
35457;DHT22;21575;51.538;-0.084;2022-12-18T13:44:32;4.20;99.90
35457;DHT22;21575;51.538;-0.084;2022-12-18T13:46:59;4.20;99.90
35457;DHT22;21575;51.538;-0.084;2022-12-18T13:49:38;4.20;99.90
35457;DHT22;21575;51.538;-0.084;2022-12-18T13:52:26;4.20;99.90
35457;DHT22;21575;51.538;-0.084;2022-12-18T13:54:57;4.10;99.90
35457;DHT22;21575;51.538;-0.084;2022-12-18T13:57:32;4.10;99.90
35457;DHT22;21575;51.538;-0.084;2022-12-18T14:00:16;4.10;99.90
35457;DHT22;21575;51.538;-0.084;2022-12-18T14:02:45;4.10;99.90
35457;DHT22;21575;51.538;-0.084;2022-12-18T14:05:43;4.10;99.90
35457;DHT22;21575;51.538;-0.084;2022-12-18T14:08:16;4.10;99.90
35457;DHT22;21575;51.538;-0.084;2022-12-18T14:10:43;4.10;99.90
35457;DHT22;21575;51.538;-0.084;2022-12-18T14:13:11;4.00;99.90
35457;DHT22;21575;51.538;-0.084;2022-12-18T14:15:42;4.00;99.90
35457;DHT22;21575;51.538;-0.084;2022-12-18T14:18:34;4.00;99.90
35457;DHT22;21575;51.538;-0.084;2022-12-18T14:21:03;4.00;99.90
35457;DHT22;21575;51.538;-0.084;2022-12-18T14:23:35;4.00;99.90
35457;DHT22;21575;51.538;-0.084;2022-12-18T14:26:17;4.00;99.90
35457;DHT22;21575;51.538;-0.084;2022-12-18T14:28:44;4.00;99.90
35457;DHT22;21575;51.538;-0.084;2022-12-18T14:31:20;4.00;99.90
35457;DHT22;21575;51.538;-0.084;2022-12-18T14:33:46;4.00;99.90
35457;DHT22;21575;51.538;-0.084;2022-12-18T14:36:16;3.90;99.90
35457;DHT22;21575;51.538;-0.084;2022-12-18T14:38:42;4.00;99.90
35457;DHT22;21575;51.538;-0.084;2022-12-18T14:41:13;4.00;99.90
35457;DHT22;21575;51.538;-0.084;2022-12-18T14:43:41;4.00;99.90
35457;DHT22;21575;51.538;-0.084;2022-12-18T14:48:55;4.00;99.90
35457;DHT22;21575;51.538;-0.084;2022-12-18T14:51:23;4.00;99.90
35457;DHT22;21575;51.538;-0.084;2022-12-18T14:54:01;4.00;99.90
35457;DHT22;21575;51.538;-0.084;2022-12-18T14:56:42;4.00;99.90
35457;DHT22;21575;51.538;-0.084;2022-12-18T14:59:19;4.00;99.90
35457;DHT22;21575;51.538;-0.084;2022-12-18T15:01:56;4.00;99.90
35457;DHT22;21575;51.538;-0.084;2022-12-18T15:07:08;4.10;99.90
35457;DHT22;21575;51.538;-0.084;2022-12-18T15:09:34;4.10;99.90
35457;DHT22;21575;51.538;-0.084;2022-12-18T15:12:01;4.00;99.90
35457;DHT22;21575;51.538;-0.084;2022-12-18T15:16:56;4.10;99.90
35457;DHT22;21575;51.538;-0.084;2022-12-18T15:19:34;4.10;99.90
35457;DHT22;21575;51.538;-0.084;2022-12-18T15:22:00;4.10;99.90
35457;DHT22;21575;51.538;-0.084;2022-12-18T15:24:30;4.10;99.90
35457;DHT22;21575;51.538;-0.084;2022-12-18T15:26:57;4.10;99.90
35457;DHT22;21575;51.538;-0.084;2022-12-18T15:29:23;4.20;99.90
35457;DHT22;21575;51.538;-0.084;2022-12-18T15:32:19;4.20;99.90
35457;DHT22;21575;51.538;-0.084;2022-12-18T15:34:45;4.20;99.90
35457;DHT22;21575;51.538;-0.084;2022-12-18T15:37:10;4.20;99.90
35457;DHT22;21575;51.538;-0.084;2022-12-18T15:39:36;4.20;99.90
35457;DHT22;21575;51.538;-0.084;2022-12-18T15:42:02;4.30;99.90
35457;DHT22;21575;51.538;-0.084;2022-12-18T15:44:46;4.30;99.90
35457;DHT22;21575;51.538;-0.084;2022-12-18T15:47:13;4.40;99.90
35457;DHT22;21575;51.538;-0.084;2022-12-18T15:49:39;4.40;99.90
35457;DHT22;21575;51.538;-0.084;2022-12-18T15:52:05;4.40;99.90
35457;DHT22;21575;51.538;-0.084;2022-12-18T15:54:31;4.40;99.90
35457;DHT22;21575;51.538;-0.084;2022-12-18T15:57:15;4.40;99.90
35457;DHT22;21575;51.538;-0.084;2022-12-18T15:59:51;4.40;99.90
35457;DHT22;21575;51.538;-0.084;2022-12-18T16:02:19;4.50;99.90
35457;DHT22;21575;51.538;-0.084;2022-12-18T16:04:45;4.50;99.90
35457;DHT22;21575;51.538;-0.084;2022-12-18T16:07:11;4.50;99.90
35457;DHT22;21575;51.538;-0.084;2022-12-18T16:09:37;4.50;99.90
35457;DHT22;21575;51.538;-0.084;2022-12-18T16:12:05;4.60;99.90
35457;DHT22;21575;51.538;-0.084;2022-12-18T16:14:31;4.60;99.90
35457;DHT22;21575;51.538;-0.084;2022-12-18T16:17:03;4.70;99.90
35457;DHT22;21575;51.538;-0.084;2022-12-18T16:19:29;4.60;99.90
35457;DHT22;21575;51.538;-0.084;2022-12-18T16:21:57;4.70;99.90
35457;DHT22;21575;51.538;-0.084;2022-12-18T16:24:28;4.80;99.90
35457;DHT22;21575;51.538;-0.084;2022-12-18T16:26:56;4.80;99.90
35457;DHT22;21575;51.538;-0.084;2022-12-18T16:29:24;4.80;99.90
35457;DHT22;21575;51.538;-0.084;2022-12-18T16:31:53;4.80;99.90
35457;DHT22;21575;51.538;-0.084;2022-12-18T16:34:27;4.90;99.90
35457;DHT22;21575;51.538;-0.084;2022-12-18T16:36:58;4.90;99.90
35457;DHT22;21575;51.538;-0.084;2022-12-18T16:39:25;4.90;99.90
35457;DHT22;21575;51.538;-0.084;2022-12-18T16:41:51;5.00;99.90
35457;DHT22;21575;51.538;-0.084;2022-12-18T16:44:17;5.00;99.90
35457;DHT22;21575;51.538;-0.084;2022-12-18T16:46:43;5.00;99.90
35457;DHT22;21575;51.538;-0.084;2022-12-18T16:49:11;5.00;99.90
35457;DHT22;21575;51.538;-0.084;2022-12-18T16:51:37;5.00;99.90
35457;DHT22;21575;51.538;-0.084;2022-12-18T16:54:03;5.10;99.90
35457;DHT22;21575;51.538;-0.084;2022-12-18T16:56:29;5.10;99.90
35457;DHT22;21575;51.538;-0.084;2022-12-18T16:58:57;5.10;99.90
35457;DHT22;21575;51.538;-0.084;2022-12-18T17:01:28;5.20;99.90
35457;DHT22;21575;51.538;-0.084;2022-12-18T17:04:01;5.20;99.90
35457;DHT22;21575;51.538;-0.084;2022-12-18T17:06:28;5.30;99.90
35457;DHT22;21575;51.538;-0.084;2022-12-18T17:08:58;5.30;99.90
35457;DHT22;21575;51.538;-0.084;2022-12-18T17:11:28;5.30;99.90
35457;DHT22;21575;51.538;-0.084;2022-12-18T17:13:54;5.30;99.90
35457;DHT22;21575;51.538;-0.084;2022-12-18T17:16:21;5.40;99.90
35457;DHT22;21575;51.538;-0.084;2022-12-18T17:18:47;5.40;99.90
35457;DHT22;21575;51.538;-0.084;2022-12-18T17:21:13;5.40;99.90
35457;DHT22;21575;51.538;-0.084;2022-12-18T17:23:40;5.40;99.90
35457;DHT22;21575;51.538;-0.084;2022-12-18T17:26:06;5.50;99.90
35457;DHT22;21575;51.538;-0.084;2022-12-18T17:28:33;5.60;99.90
35457;DHT22;21575;51.538;-0.084;2022-12-18T17:30:59;5.60;99.90
35457;DHT22;21575;51.538;-0.084;2022-12-18T17:33:26;5.70;99.90
35457;DHT22;21575;51.538;-0.084;2022-12-18T17:35:52;5.70;99.90